sensor_id;sensor_type;location;lat;lon;timestamp;temperature;humidity
56300;DHT22;42209;6.376;-10.782;2023-07-20T00:01:41;22.70;78.10
56300;DHT22;42209;6.376;-10.782;2023-07-20T00:04:09;22.80;81.90
56300;DHT22;42209;6.376;-10.782;2023-07-20T00:06:38;22.90;83.90
56300;DHT22;42209;6.376;-10.782;2023-07-20T00:09:07;23.00;85.20
56300;DHT22;42209;6.376;-10.782;2023-07-20T00:11:40;23.10;86.40
56300;DHT22;42209;6.376;-10.782;2023-07-20T00:14:08;23.10;87.60
56300;DHT22;42209;6.376;-10.782;2023-07-20T00:16:37;23.20;88.50
56300;DHT22;42209;6.376;-10.782;2023-07-20T00:19:05;23.30;88.70
56300;DHT22;42209;6.376;-10.782;2023-07-20T00:21:34;23.10;81.60
56300;DHT22;42209;6.376;-10.782;2023-07-20T00:24:02;22.80;76.20
56300;DHT22;42209;6.376;-10.782;2023-07-20T00:26:30;22.60;77.60
56300;DHT22;42209;6.376;-10.782;2023-07-20T00:28:59;22.80;81.60
56300;DHT22;42209;6.376;-10.782;2023-07-20T00:31:28;22.90;84.10
56300;DHT22;42209;6.376;-10.782;2023-07-20T00:33:56;23.00;85.40
56300;DHT22;42209;6.376;-10.782;2023-07-20T00:36:24;23.10;87.00
56300;DHT22;42209;6.376;-10.782;2023-07-20T00:38:53;23.20;88.10
56300;DHT22;42209;6.376;-10.782;2023-07-20T00:41:22;23.20;89.20
56300;DHT22;42209;6.376;-10.782;2023-07-20T00:43:50;23.30;89.70
56300;DHT22;42209;6.376;-10.782;2023-07-20T00:46:20;23.20;82.70
56300;DHT22;42209;6.376;-10.782;2023-07-20T00:48:49;22.80;76.90
56300;DHT22;42209;6.376;-10.782;2023-07-20T00:51:18;22.60;78.40
56300;DHT22;42209;6.376;-10.782;2023-07-20T00:53:48;22.70;81.90
56300;DHT22;42209;6.376;-10.782;2023-07-20T00:56:17;22.90;83.90
56300;DHT22;42209;6.376;-10.782;2023-07-20T00:58:45;23.00;85.80
56300;DHT22;42209;6.376;-10.782;2023-07-20T01:01:14;23.10;86.60
56300;DHT22;42209;6.376;-10.782;2023-07-20T01:03:42;23.20;88.00
56300;DHT22;42209;6.376;-10.782;2023-07-20T01:09:34;23.30;89.80
56300;DHT22;42209;6.376;-10.782;2023-07-20T01:12:08;23.00;80.70
56300;DHT22;42209;6.376;-10.782;2023-07-20T01:14:38;22.70;75.90
56300;DHT22;42209;6.376;-10.782;2023-07-20T01:17:07;22.70;79.90
56300;DHT22;42209;6.376;-10.782;2023-07-20T01:19:35;22.80;83.70
56300;DHT22;42209;6.376;-10.782;2023-07-20T01:25:02;23.00;86.80
56300;DHT22;42209;6.376;-10.782;2023-07-20T01:27:57;23.10;87.90
56300;DHT22;42209;6.376;-10.782;2023-07-20T01:33:15;23.30;90.00
56300;DHT22;42209;6.376;-10.782;2023-07-20T01:35:57;23.20;83.70
56300;DHT22;42209;6.376;-10.782;2023-07-20T01:38:28;22.80;78.10
56300;DHT22;42209;6.376;-10.782;2023-07-20T01:40:57;22.60;78.90
56300;DHT22;42209;6.376;-10.782;2023-07-20T01:43:26;22.80;82.30
56300;DHT22;42209;6.376;-10.782;2023-07-20T01:45:54;22.90;85.00
56300;DHT22;42209;6.376;-10.782;2023-07-20T01:48:23;23.00;86.40
56300;DHT22;42209;6.376;-10.782;2023-07-20T01:50:51;23.10;87.30
56300;DHT22;42209;6.376;-10.782;2023-07-20T01:53:21;23.20;88.60
56300;DHT22;42209;6.376;-10.782;2023-07-20T01:55:53;23.20;89.10
56300;DHT22;42209;6.376;-10.782;2023-07-20T01:58:21;23.30;89.60
56300;DHT22;42209;6.376;-10.782;2023-07-20T02:00:49;23.20;82.90
56300;DHT22;42209;6.376;-10.782;2023-07-20T02:03:19;22.90;78.10
56300;DHT22;42209;6.376;-10.782;2023-07-20T02:05:48;22.60;77.60
56300;DHT22;42209;6.376;-10.782;2023-07-20T02:08:16;22.70;82.20
56300;DHT22;42209;6.376;-10.782;2023-07-20T02:10:48;22.80;84.40
56300;DHT22;42209;6.376;-10.782;2023-07-20T02:13:17;22.90;85.80
56300;DHT22;42209;6.376;-10.782;2023-07-20T02:15:45;23.10;86.90
56300;DHT22;42209;6.376;-10.782;2023-07-20T02:18:14;23.10;88.50
56300;DHT22;42209;6.376;-10.782;2023-07-20T02:20:42;23.20;89.50
56300;DHT22;42209;6.376;-10.782;2023-07-20T02:23:11;23.20;90.00
56300;DHT22;42209;6.376;-10.782;2023-07-20T02:25:41;23.20;84.50
56300;DHT22;42209;6.376;-10.782;2023-07-20T02:28:10;22.90;78.50
56300;DHT22;42209;6.376;-10.782;2023-07-20T02:30:40;22.60;77.30
56300;DHT22;42209;6.376;-10.782;2023-07-20T02:33:08;22.70;81.60
56300;DHT22;42209;6.376;-10.782;2023-07-20T02:35:37;22.80;84.10
56300;DHT22;42209;6.376;-10.782;2023-07-20T02:38:05;22.90;85.40
56300;DHT22;42209;6.376;-10.782;2023-07-20T02:40:34;23.00;86.80
56300;DHT22;42209;6.376;-10.782;2023-07-20T02:43:02;23.10;87.80
56300;DHT22;42209;6.376;-10.782;2023-07-20T02:45:31;23.20;88.80
56300;DHT22;42209;6.376;-10.782;2023-07-20T02:47:59;23.20;89.50
56300;DHT22;42209;6.376;-10.782;2023-07-20T02:50:28;23.20;87.50
56300;DHT22;42209;6.376;-10.782;2023-07-20T02:52:56;23.00;80.50
56300;DHT22;42209;6.376;-10.782;2023-07-20T02:55:25;22.70;76.60
56300;DHT22;42209;6.376;-10.782;2023-07-20T02:57:53;22.60;79.50
56300;DHT22;42209;6.376;-10.782;2023-07-20T03:00:22;22.70;83.40
56300;DHT22;42209;6.376;-10.782;2023-07-20T03:02:50;22.80;84.90
56300;DHT22;42209;6.376;-10.782;2023-07-20T03:05:19;23.00;86.40
56300;DHT22;42209;6.376;-10.782;2023-07-20T03:07:48;23.10;87.50
56300;DHT22;42209;6.376;-10.782;2023-07-20T03:10:17;23.10;88.90
56300;DHT22;42209;6.376;-10.782;2023-07-20T03:12:46;23.20;89.80
56300;DHT22;42209;6.376;-10.782;2023-07-20T03:15:14;23.20;89.10
56300;DHT22;42209;6.376;-10.782;2023-07-20T03:17:43;23.30;90.00
56300;DHT22;42209;6.376;-10.782;2023-07-20T03:20:11;23.40;90.20
56300;DHT22;42209;6.376;-10.782;2023-07-20T03:22:41;23.30;83.30
56300;DHT22;42209;6.376;-10.782;2023-07-20T03:25:09;22.90;78.30
56300;DHT22;42209;6.376;-10.782;2023-07-20T03:27:37;22.60;76.90
56300;DHT22;42209;6.376;-10.782;2023-07-20T03:30:06;22.70;82.20
56300;DHT22;42209;6.376;-10.782;2023-07-20T03:32:36;22.80;85.00
56300;DHT22;42209;6.376;-10.782;2023-07-20T03:35:05;22.90;86.60
56300;DHT22;42209;6.376;-10.782;2023-07-20T03:37:33;23.00;88.10
56300;DHT22;42209;6.376;-10.782;2023-07-20T03:40:02;23.10;89.20
56300;DHT22;42209;6.376;-10.782;2023-07-20T03:42:30;23.20;90.10
56300;DHT22;42209;6.376;-10.782;2023-07-20T03:44:59;23.20;89.60
56300;DHT22;42209;6.376;-10.782;2023-07-20T03:47:27;23.30;89.90
56300;DHT22;42209;6.376;-10.782;2023-07-20T03:49:56;23.40;90.20
56300;DHT22;42209;6.376;-10.782;2023-07-20T03:52:24;23.20;83.10
56300;DHT22;42209;6.376;-10.782;2023-07-20T03:54:53;22.90;78.70
56300;DHT22;42209;6.376;-10.782;2023-07-20T03:57:21;22.60;78.10
56300;DHT22;42209;6.376;-10.782;2023-07-20T03:59:49;22.70;82.50
56300;DHT22;42209;6.376;-10.782;2023-07-20T04:02:18;22.80;85.30
56300;DHT22;42209;6.376;-10.782;2023-07-20T04:04:46;22.90;86.80
56300;DHT22;42209;6.376;-10.782;2023-07-20T04:07:15;23.10;88.00
56300;DHT22;42209;6.376;-10.782;2023-07-20T04:09:43;23.20;89.10
56300;DHT22;42209;6.376;-10.782;2023-07-20T04:12:12;23.20;90.00
56300;DHT22;42209;6.376;-10.782;2023-07-20T04:14:40;23.30;90.20
56300;DHT22;42209;6.376;-10.782;2023-07-20T04:17:09;23.20;85.10
56300;DHT22;42209;6.376;-10.782;2023-07-20T04:19:37;22.90;79.20
56300;DHT22;42209;6.376;-10.782;2023-07-20T04:22:06;22.70;76.80
56300;DHT22;42209;6.376;-10.782;2023-07-20T04:24:35;22.70;82.30
56300;DHT22;42209;6.376;-10.782;2023-07-20T04:27:03;22.80;84.90
56300;DHT22;42209;6.376;-10.782;2023-07-20T04:29:32;22.90;86.50
56300;DHT22;42209;6.376;-10.782;2023-07-20T04:32:00;23.00;87.80
56300;DHT22;42209;6.376;-10.782;2023-07-20T04:34:29;23.20;88.90
56300;DHT22;42209;6.376;-10.782;2023-07-20T04:36:58;23.20;90.00
56300;DHT22;42209;6.376;-10.782;2023-07-20T04:39:27;23.30;90.30
56300;DHT22;42209;6.376;-10.782;2023-07-20T04:42:06;23.30;87.90
56300;DHT22;42209;6.376;-10.782;2023-07-20T04:44:35;22.90;80.20
56300;DHT22;42209;6.376;-10.782;2023-07-20T04:47:04;22.60;77.50
56300;DHT22;42209;6.376;-10.782;2023-07-20T04:49:37;22.60;82.30
56300;DHT22;42209;6.376;-10.782;2023-07-20T04:52:06;22.80;85.10
56300;DHT22;42209;6.376;-10.782;2023-07-20T04:54:35;22.90;86.10
56300;DHT22;42209;6.376;-10.782;2023-07-20T04:57:11;23.00;87.90
56300;DHT22;42209;6.376;-10.782;2023-07-20T04:59:45;23.10;88.90
56300;DHT22;42209;6.376;-10.782;2023-07-20T05:02:13;23.20;89.70
56300;DHT22;42209;6.376;-10.782;2023-07-20T05:04:42;23.30;90.20
56300;DHT22;42209;6.376;-10.782;2023-07-20T05:07:10;23.30;87.60
56300;DHT22;42209;6.376;-10.782;2023-07-20T05:09:39;23.00;81.60
56300;DHT22;42209;6.376;-10.782;2023-07-20T05:12:08;22.70;77.00
56300;DHT22;42209;6.376;-10.782;2023-07-20T05:14:37;22.60;80.60
56300;DHT22;42209;6.376;-10.782;2023-07-20T05:17:06;22.70;83.90
56300;DHT22;42209;6.376;-10.782;2023-07-20T05:19:34;22.80;85.50
56300;DHT22;42209;6.376;-10.782;2023-07-20T05:22:03;23.00;86.90
56300;DHT22;42209;6.376;-10.782;2023-07-20T05:24:32;23.10;88.40
56300;DHT22;42209;6.376;-10.782;2023-07-20T05:27:00;23.20;89.40
56300;DHT22;42209;6.376;-10.782;2023-07-20T05:29:29;23.20;89.90
56300;DHT22;42209;6.376;-10.782;2023-07-20T05:31:58;23.30;90.00
56300;DHT22;42209;6.376;-10.782;2023-07-20T05:34:26;23.30;87.70
56300;DHT22;42209;6.376;-10.782;2023-07-20T05:37:10;23.00;80.20
56300;DHT22;42209;6.376;-10.782;2023-07-20T05:39:41;22.60;78.10
56300;DHT22;42209;6.376;-10.782;2023-07-20T05:42:10;22.70;82.40
56300;DHT22;42209;6.376;-10.782;2023-07-20T05:44:40;22.80;84.80
56300;DHT22;42209;6.376;-10.782;2023-07-20T05:47:09;22.90;86.50
56300;DHT22;42209;6.376;-10.782;2023-07-20T05:49:37;22.90;87.70
56300;DHT22;42209;6.376;-10.782;2023-07-20T05:52:06;23.10;88.60
56300;DHT22;42209;6.376;-10.782;2023-07-20T05:54:35;23.20;89.70
56300;DHT22;42209;6.376;-10.782;2023-07-20T05:57:04;23.20;90.20
56300;DHT22;42209;6.376;-10.782;2023-07-20T05:59:33;23.30;90.50
56300;DHT22;42209;6.376;-10.782;2023-07-20T06:02:01;23.20;85.40
56300;DHT22;42209;6.376;-10.782;2023-07-20T06:04:29;22.90;80.30
56300;DHT22;42209;6.376;-10.782;2023-07-20T06:06:58;22.60;78.00
56300;DHT22;42209;6.376;-10.782;2023-07-20T06:09:26;22.70;82.50
56300;DHT22;42209;6.376;-10.782;2023-07-20T06:11:55;22.80;85.20
56300;DHT22;42209;6.376;-10.782;2023-07-20T06:14:23;22.90;86.70
56300;DHT22;42209;6.376;-10.782;2023-07-20T06:20:12;23.20;88.10
56300;DHT22;42209;6.376;-10.782;2023-07-20T06:22:41;23.30;89.10
56300;DHT22;42209;6.376;-10.782;2023-07-20T06:25:10;23.20;84.50
56300;DHT22;42209;6.376;-10.782;2023-07-20T06:27:38;22.90;79.10
56300;DHT22;42209;6.376;-10.782;2023-07-20T06:30:08;22.50;76.00
56300;DHT22;42209;6.376;-10.782;2023-07-20T06:32:38;22.60;80.70
56300;DHT22;42209;6.376;-10.782;2023-07-20T06:35:07;22.70;83.90
56300;DHT22;42209;6.376;-10.782;2023-07-20T06:37:35;22.80;85.70
56300;DHT22;42209;6.376;-10.782;2023-07-20T06:40:04;22.90;87.00
56300;DHT22;42209;6.376;-10.782;2023-07-20T06:42:35;23.00;88.20
56300;DHT22;42209;6.376;-10.782;2023-07-20T06:45:07;23.10;89.50
56300;DHT22;42209;6.376;-10.782;2023-07-20T06:47:40;23.20;90.10
56300;DHT22;42209;6.376;-10.782;2023-07-20T06:50:09;23.30;90.40
56300;DHT22;42209;6.376;-10.782;2023-07-20T06:52:44;23.30;89.80
56300;DHT22;42209;6.376;-10.782;2023-07-20T06:55:12;23.40;90.40
56300;DHT22;42209;6.376;-10.782;2023-07-20T06:57:41;23.30;85.10
56300;DHT22;42209;6.376;-10.782;2023-07-20T07:00:15;22.90;79.80
56300;DHT22;42209;6.376;-10.782;2023-07-20T07:02:43;22.60;76.90
56300;DHT22;42209;6.376;-10.782;2023-07-20T07:05:15;22.70;82.40
56300;DHT22;42209;6.376;-10.782;2023-07-20T07:07:46;22.80;85.30
56300;DHT22;42209;6.376;-10.782;2023-07-20T07:10:15;22.90;87.30
56300;DHT22;42209;6.376;-10.782;2023-07-20T07:12:43;23.10;88.80
56300;DHT22;42209;6.376;-10.782;2023-07-20T07:15:12;23.10;89.70
56300;DHT22;42209;6.376;-10.782;2023-07-20T07:17:40;23.20;90.20
56300;DHT22;42209;6.376;-10.782;2023-07-20T07:20:09;23.30;90.50
56300;DHT22;42209;6.376;-10.782;2023-07-20T07:22:47;23.10;83.20
56300;DHT22;42209;6.376;-10.782;2023-07-20T07:25:20;22.90;79.20
56300;DHT22;42209;6.376;-10.782;2023-07-20T07:27:51;22.60;76.10
56300;DHT22;42209;6.376;-10.782;2023-07-20T07:30:20;22.50;74.10
56300;DHT22;42209;6.376;-10.782;2023-07-20T07:32:48;22.30;72.30
56300;DHT22;42209;6.376;-10.782;2023-07-20T07:35:17;22.20;72.20
56300;DHT22;42209;6.376;-10.782;2023-07-20T07:37:45;22.50;77.00
56300;DHT22;42209;6.376;-10.782;2023-07-20T07:40:33;22.60;81.40
56300;DHT22;42209;6.376;-10.782;2023-07-20T07:43:01;22.70;83.60
56300;DHT22;42209;6.376;-10.782;2023-07-20T07:45:30;22.90;84.90
56300;DHT22;42209;6.376;-10.782;2023-07-20T07:47:58;22.90;86.00
56300;DHT22;42209;6.376;-10.782;2023-07-20T07:50:27;23.00;87.00
56300;DHT22;42209;6.376;-10.782;2023-07-20T07:52:55;23.10;87.90
56300;DHT22;42209;6.376;-10.782;2023-07-20T07:55:27;23.10;88.50
56300;DHT22;42209;6.376;-10.782;2023-07-20T07:57:55;23.20;86.60
56300;DHT22;42209;6.376;-10.782;2023-07-20T08:00:25;23.00;79.90
56300;DHT22;42209;6.376;-10.782;2023-07-20T08:02:54;22.70;76.60
56300;DHT22;42209;6.376;-10.782;2023-07-20T08:05:23;22.50;74.40
56300;DHT22;42209;6.376;-10.782;2023-07-20T08:07:51;22.30;72.20
56300;DHT22;42209;6.376;-10.782;2023-07-20T08:10:20;22.20;71.00
56300;DHT22;42209;6.376;-10.782;2023-07-20T08:12:48;22.40;76.40
56300;DHT22;42209;6.376;-10.782;2023-07-20T08:15:16;22.50;80.30
56300;DHT22;42209;6.376;-10.782;2023-07-20T08:17:46;22.70;82.00
56300;DHT22;42209;6.376;-10.782;2023-07-20T08:20:15;22.80;83.70
56300;DHT22;42209;6.376;-10.782;2023-07-20T08:22:44;22.80;84.60
56300;DHT22;42209;6.376;-10.782;2023-07-20T08:25:15;22.90;86.00
56300;DHT22;42209;6.376;-10.782;2023-07-20T08:27:44;23.00;86.50
56300;DHT22;42209;6.376;-10.782;2023-07-20T08:30:12;23.10;87.90
56300;DHT22;42209;6.376;-10.782;2023-07-20T08:32:42;23.10;88.30
56300;DHT22;42209;6.376;-10.782;2023-07-20T08:35:11;23.20;89.20
56300;DHT22;42209;6.376;-10.782;2023-07-20T08:37:42;23.10;84.10
56300;DHT22;42209;6.376;-10.782;2023-07-20T08:40:12;22.80;78.10
56300;DHT22;42209;6.376;-10.782;2023-07-20T08:42:42;22.50;75.10
56300;DHT22;42209;6.376;-10.782;2023-07-20T08:45:13;22.60;79.20
56300;DHT22;42209;6.376;-10.782;2023-07-20T08:47:45;22.70;83.90
56300;DHT22;42209;6.376;-10.782;2023-07-20T08:50:16;22.80;86.60
56300;DHT22;42209;6.376;-10.782;2023-07-20T08:52:45;22.90;87.30
56300;DHT22;42209;6.376;-10.782;2023-07-20T08:55:14;23.00;88.30
56300;DHT22;42209;6.376;-10.782;2023-07-20T08:57:44;23.10;89.40
56300;DHT22;42209;6.376;-10.782;2023-07-20T09:00:15;23.10;89.90
56300;DHT22;42209;6.376;-10.782;2023-07-20T09:02:46;23.10;84.40
56300;DHT22;42209;6.376;-10.782;2023-07-20T09:05:15;22.80;78.90
56300;DHT22;42209;6.376;-10.782;2023-07-20T09:07:44;22.50;75.40
56300;DHT22;42209;6.376;-10.782;2023-07-20T09:10:13;22.50;79.20
56300;DHT22;42209;6.376;-10.782;2023-07-20T09:12:43;22.60;83.60
56300;DHT22;42209;6.376;-10.782;2023-07-20T09:15:12;22.80;85.80
56300;DHT22;42209;6.376;-10.782;2023-07-20T09:17:45;22.90;86.90
56300;DHT22;42209;6.376;-10.782;2023-07-20T09:20:16;23.00;88.10
56300;DHT22;42209;6.376;-10.782;2023-07-20T09:22:50;23.10;89.20
56300;DHT22;42209;6.376;-10.782;2023-07-20T09:25:19;23.20;89.90
56300;DHT22;42209;6.376;-10.782;2023-07-20T09:27:51;23.20;86.90
56300;DHT22;42209;6.376;-10.782;2023-07-20T09:30:19;22.90;80.50
56300;DHT22;42209;6.376;-10.782;2023-07-20T09:32:58;22.60;76.60
56300;DHT22;42209;6.376;-10.782;2023-07-20T09:35:27;22.40;74.10
56300;DHT22;42209;6.376;-10.782;2023-07-20T09:38:09;22.40;77.00
56300;DHT22;42209;6.376;-10.782;2023-07-20T09:40:57;22.60;81.70
56300;DHT22;42209;6.376;-10.782;2023-07-20T09:43:33;22.80;84.60
56300;DHT22;42209;6.376;-10.782;2023-07-20T09:46:02;22.90;86.00
56300;DHT22;42209;6.376;-10.782;2023-07-20T09:48:31;23.00;87.50
56300;DHT22;42209;6.376;-10.782;2023-07-20T09:51:24;23.10;88.70
56300;DHT22;42209;6.376;-10.782;2023-07-20T09:53:53;23.10;90.10
56300;DHT22;42209;6.376;-10.782;2023-07-20T09:56:22;23.20;90.20
56300;DHT22;42209;6.376;-10.782;2023-07-20T09:58:53;23.20;86.00
56300;DHT22;42209;6.376;-10.782;2023-07-20T10:01:21;22.90;80.60
56300;DHT22;42209;6.376;-10.782;2023-07-20T10:04:03;22.60;76.40
56300;DHT22;42209;6.376;-10.782;2023-07-20T10:06:33;22.40;75.50
56300;DHT22;42209;6.376;-10.782;2023-07-20T10:09:04;22.50;81.20
56300;DHT22;42209;6.376;-10.782;2023-07-20T10:11:36;22.70;84.60
56300;DHT22;42209;6.376;-10.782;2023-07-20T10:14:06;22.80;86.30
56300;DHT22;42209;6.376;-10.782;2023-07-20T10:16:36;22.90;87.60
56300;DHT22;42209;6.376;-10.782;2023-07-20T10:19:13;23.10;88.80
56300;DHT22;42209;6.376;-10.782;2023-07-20T10:21:48;23.10;89.60
56300;DHT22;42209;6.376;-10.782;2023-07-20T10:24:26;23.20;90.10
56300;DHT22;42209;6.376;-10.782;2023-07-20T10:26:57;23.10;84.40
56300;DHT22;42209;6.376;-10.782;2023-07-20T10:29:26;22.80;79.00
56300;DHT22;42209;6.376;-10.782;2023-07-20T10:31:56;22.60;75.70
56300;DHT22;42209;6.376;-10.782;2023-07-20T10:34:25;22.40;74.10
56300;DHT22;42209;6.376;-10.782;2023-07-20T10:36:53;22.50;78.70
56300;DHT22;42209;6.376;-10.782;2023-07-20T10:39:41;22.70;82.90
56300;DHT22;42209;6.376;-10.782;2023-07-20T10:42:10;22.80;85.20
56300;DHT22;42209;6.376;-10.782;2023-07-20T10:44:40;22.90;86.80
56300;DHT22;42209;6.376;-10.782;2023-07-20T10:47:12;23.00;87.70
56300;DHT22;42209;6.376;-10.782;2023-07-20T10:50:07;23.10;88.90
56300;DHT22;42209;6.376;-10.782;2023-07-20T10:52:42;23.20;89.70
56300;DHT22;42209;6.376;-10.782;2023-07-20T10:55:15;23.10;85.60
56300;DHT22;42209;6.376;-10.782;2023-07-20T10:58:08;22.90;79.80
56300;DHT22;42209;6.376;-10.782;2023-07-20T11:01:02;22.60;75.70
56300;DHT22;42209;6.376;-10.782;2023-07-20T11:03:34;22.50;76.80
56300;DHT22;42209;6.376;-10.782;2023-07-20T11:09:12;22.80;85.40
56300;DHT22;42209;6.376;-10.782;2023-07-20T11:11:46;22.90;87.20
56300;DHT22;42209;6.376;-10.782;2023-07-20T11:14:23;23.00;88.50
56300;DHT22;42209;6.376;-10.782;2023-07-20T11:16:53;23.20;89.40
56300;DHT22;42209;6.376;-10.782;2023-07-20T11:19:23;23.20;90.00
56300;DHT22;42209;6.376;-10.782;2023-07-20T11:21:56;23.00;82.30
56300;DHT22;42209;6.376;-10.782;2023-07-20T11:24:28;22.80;77.60
56300;DHT22;42209;6.376;-10.782;2023-07-20T11:26:59;22.60;74.50
56300;DHT22;42209;6.376;-10.782;2023-07-20T11:29:27;22.40;72.10
56300;DHT22;42209;6.376;-10.782;2023-07-20T11:32:01;22.20;73.90
56300;DHT22;42209;6.376;-10.782;2023-07-20T11:34:33;22.50;79.10
56300;DHT22;42209;6.376;-10.782;2023-07-20T11:37:05;22.60;81.50
56300;DHT22;42209;6.376;-10.782;2023-07-20T11:39:37;22.80;84.00
56300;DHT22;42209;6.376;-10.782;2023-07-20T11:42:06;22.90;85.50
56300;DHT22;42209;6.376;-10.782;2023-07-20T11:44:35;23.00;86.60
56300;DHT22;42209;6.376;-10.782;2023-07-20T11:47:07;23.00;87.60
56300;DHT22;42209;6.376;-10.782;2023-07-20T11:52:18;23.20;88.90
56300;DHT22;42209;6.376;-10.782;2023-07-20T11:54:47;23.10;83.30
56300;DHT22;42209;6.376;-10.782;2023-07-20T11:57:19;22.80;78.10
56300;DHT22;42209;6.376;-10.782;2023-07-20T11:59:54;22.60;74.60
56300;DHT22;42209;6.376;-10.782;2023-07-20T12:02:26;22.40;73.20
56300;DHT22;42209;6.376;-10.782;2023-07-20T12:04:56;22.50;77.90
56300;DHT22;42209;6.376;-10.782;2023-07-20T12:07:27;22.70;82.10
56300;DHT22;42209;6.376;-10.782;2023-07-20T12:10:07;22.80;84.20
56300;DHT22;42209;6.376;-10.782;2023-07-20T12:12:40;22.90;86.20
56300;DHT22;42209;6.376;-10.782;2023-07-20T12:15:17;23.00;87.10
56300;DHT22;42209;6.376;-10.782;2023-07-20T12:17:55;23.10;88.20
56300;DHT22;42209;6.376;-10.782;2023-07-20T12:20:33;23.20;88.90
56300;DHT22;42209;6.376;-10.782;2023-07-20T12:23:05;23.20;86.90
56300;DHT22;42209;6.376;-10.782;2023-07-20T12:25:40;22.90;80.10
56300;DHT22;42209;6.376;-10.782;2023-07-20T12:28:17;22.60;75.70
56300;DHT22;42209;6.376;-10.782;2023-07-20T12:30:47;22.40;72.90
56300;DHT22;42209;6.376;-10.782;2023-07-20T12:33:16;22.40;74.90
56300;DHT22;42209;6.376;-10.782;2023-07-20T12:35:45;22.60;80.40
56300;DHT22;42209;6.376;-10.782;2023-07-20T12:38:14;22.70;83.10
56300;DHT22;42209;6.376;-10.782;2023-07-20T12:40:43;22.80;85.20
56300;DHT22;42209;6.376;-10.782;2023-07-20T12:43:11;23.00;86.50
56300;DHT22;42209;6.376;-10.782;2023-07-20T12:45:40;23.00;87.60
56300;DHT22;42209;6.376;-10.782;2023-07-20T12:48:08;23.10;88.30
56300;DHT22;42209;6.376;-10.782;2023-07-20T12:50:37;23.20;88.40
56300;DHT22;42209;6.376;-10.782;2023-07-20T12:53:06;23.00;80.90
56300;DHT22;42209;6.376;-10.782;2023-07-20T12:55:35;22.80;76.20
56300;DHT22;42209;6.376;-10.782;2023-07-20T12:58:11;22.50;74.00
56300;DHT22;42209;6.376;-10.782;2023-07-20T13:00:40;22.40;71.70
56300;DHT22;42209;6.376;-10.782;2023-07-20T13:03:08;22.20;69.90
56300;DHT22;42209;6.376;-10.782;2023-07-20T13:05:56;22.10;68.40
56300;DHT22;42209;6.376;-10.782;2023-07-20T13:08:27;22.00;68.30
56300;DHT22;42209;6.376;-10.782;2023-07-20T13:10:57;22.20;72.90
56300;DHT22;42209;6.376;-10.782;2023-07-20T13:13:26;22.40;77.20
56300;DHT22;42209;6.376;-10.782;2023-07-20T13:15:55;22.60;79.70
56300;DHT22;42209;6.376;-10.782;2023-07-20T13:18:23;22.70;81.60
56300;DHT22;42209;6.376;-10.782;2023-07-20T13:20:52;22.80;82.90
56300;DHT22;42209;6.376;-10.782;2023-07-20T13:23:21;22.90;84.20
56300;DHT22;42209;6.376;-10.782;2023-07-20T13:25:49;22.90;85.10
56300;DHT22;42209;6.376;-10.782;2023-07-20T13:28:18;23.00;85.70
56300;DHT22;42209;6.376;-10.782;2023-07-20T13:30:46;23.00;86.50
56300;DHT22;42209;6.376;-10.782;2023-07-20T13:33:15;23.10;86.70
56300;DHT22;42209;6.376;-10.782;2023-07-20T13:35:45;22.90;78.70
56300;DHT22;42209;6.376;-10.782;2023-07-20T13:38:16;22.60;74.20
56300;DHT22;42209;6.376;-10.782;2023-07-20T13:40:45;22.40;72.10
56300;DHT22;42209;6.376;-10.782;2023-07-20T13:43:13;22.20;70.00
56300;DHT22;42209;6.376;-10.782;2023-07-20T13:45:42;22.10;68.40
56300;DHT22;42209;6.376;-10.782;2023-07-20T13:48:10;22.20;72.30
56300;DHT22;42209;6.376;-10.782;2023-07-20T13:50:42;22.40;77.00
56300;DHT22;42209;6.376;-10.782;2023-07-20T13:53:26;22.60;80.30
56300;DHT22;42209;6.376;-10.782;2023-07-20T13:55:58;22.70;81.90
56300;DHT22;42209;6.376;-10.782;2023-07-20T13:58:33;22.80;83.40
56300;DHT22;42209;6.376;-10.782;2023-07-20T14:01:01;22.90;84.60
56300;DHT22;42209;6.376;-10.782;2023-07-20T14:03:30;22.90;85.40
56300;DHT22;42209;6.376;-10.782;2023-07-20T14:05:58;23.00;86.30
56300;DHT22;42209;6.376;-10.782;2023-07-20T14:08:29;23.10;87.00
56300;DHT22;42209;6.376;-10.782;2023-07-20T14:10:58;23.20;87.20
56300;DHT22;42209;6.376;-10.782;2023-07-20T14:13:29;23.00;79.20
56300;DHT22;42209;6.376;-10.782;2023-07-20T14:16:13;22.70;75.00
56300;DHT22;42209;6.376;-10.782;2023-07-20T14:18:41;22.50;72.10
56300;DHT22;42209;6.376;-10.782;2023-07-20T14:21:10;22.30;70.10
56300;DHT22;42209;6.376;-10.782;2023-07-20T14:23:38;22.10;69.00
56300;DHT22;42209;6.376;-10.782;2023-07-20T14:26:08;22.30;73.30
56300;DHT22;42209;6.376;-10.782;2023-07-20T14:28:43;22.50;78.80
56300;DHT22;42209;6.376;-10.782;2023-07-20T14:31:12;22.60;80.80
56300;DHT22;42209;6.376;-10.782;2023-07-20T14:33:41;22.70;82.40
56300;DHT22;42209;6.376;-10.782;2023-07-20T14:36:09;22.80;83.50
56300;DHT22;42209;6.376;-10.782;2023-07-20T14:38:38;22.90;84.90
56300;DHT22;42209;6.376;-10.782;2023-07-20T14:41:07;22.90;85.50
56300;DHT22;42209;6.376;-10.782;2023-07-20T14:43:35;23.00;86.40
56300;DHT22;42209;6.376;-10.782;2023-07-20T14:46:04;23.10;87.00
56300;DHT22;42209;6.376;-10.782;2023-07-20T14:48:33;23.10;83.40
56300;DHT22;42209;6.376;-10.782;2023-07-20T14:51:01;22.90;77.30
56300;DHT22;42209;6.376;-10.782;2023-07-20T14:53:32;22.60;73.70
56300;DHT22;42209;6.376;-10.782;2023-07-20T14:56:03;22.30;71.80
56300;DHT22;42209;6.376;-10.782;2023-07-20T14:58:32;22.10;69.70
56300;DHT22;42209;6.376;-10.782;2023-07-20T15:01:03;22.00;68.10
56300;DHT22;42209;6.376;-10.782;2023-07-20T15:03:31;22.10;71.10
56300;DHT22;42209;6.376;-10.782;2023-07-20T15:06:00;22.30;77.60
56300;DHT22;42209;6.376;-10.782;2023-07-20T15:08:29;22.50;80.20
56300;DHT22;42209;6.376;-10.782;2023-07-20T15:10:58;22.60;81.80
56300;DHT22;42209;6.376;-10.782;2023-07-20T15:13:26;22.80;83.20
56300;DHT22;42209;6.376;-10.782;2023-07-20T15:15:55;22.80;84.10
56300;DHT22;42209;6.376;-10.782;2023-07-20T15:18:24;22.90;85.20
56300;DHT22;42209;6.376;-10.782;2023-07-20T15:21:04;23.00;86.00
56300;DHT22;42209;6.376;-10.782;2023-07-20T15:23:33;23.10;86.50
56300;DHT22;42209;6.376;-10.782;2023-07-20T15:26:01;23.10;87.00
56300;DHT22;42209;6.376;-10.782;2023-07-20T15:28:31;23.00;80.30
56300;DHT22;42209;6.376;-10.782;2023-07-20T15:31:00;22.70;74.80
56300;DHT22;42209;6.376;-10.782;2023-07-20T15:33:29;22.50;72.30
56300;DHT22;42209;6.376;-10.782;2023-07-20T15:35:57;22.40;75.80
56300;DHT22;42209;6.376;-10.782;2023-07-20T15:38:26;22.60;80.30
56300;DHT22;42209;6.376;-10.782;2023-07-20T15:40:55;22.80;82.60
56300;DHT22;42209;6.376;-10.782;2023-07-20T15:43:23;22.90;84.50
56300;DHT22;42209;6.376;-10.782;2023-07-20T15:45:51;22.90;85.60
56300;DHT22;42209;6.376;-10.782;2023-07-20T15:48:31;23.00;86.60
56300;DHT22;42209;6.376;-10.782;2023-07-20T15:50:59;23.10;87.70
56300;DHT22;42209;6.376;-10.782;2023-07-20T15:53:29;23.10;88.00